Time;durP1;ratioP1;P1;durP2;ratioP2;P2;SDS_P1;SDS_P2;PMS_P1;PMS_P2;Temp;Humidity;BMP_temperature;BMP_pressure;BME280_temperature;BME280_humidity;BME280_pressure;Samples;Min_cycle;Max_cycle;Signal;HPM_P1;HPM_P2
2021/07/09 00:00:47;;;;;;;21.60;8.57;;;;;;;20.90;66.34;101237.78;126328;1099;104843;-75
2021/07/09 00:03:23;;;;;;;25.80;12.70;;;;;;;20.87;65.58;101234.22;126336;1099;104251;-75
2021/07/09 00:05:54;;;;;;;45.57;31.67;;;;;;;20.82;66.59;101227.08;126335;1099;104156;-77
2021/07/09 00:08:25;;;;;;;39.57;23.63;;;;;;;20.79;66.34;101226.17;126239;1098;104219;-75
2021/07/09 00:10:55;;;;;;;28.27;12.97;;;;;;;20.74;66.72;101226.15;126373;1099;104134;-76
2021/07/09 00:13:26;;;;;;;33.30;14.33;;;;;;;20.70;67.10;101224.34;126335;1099;104181;-77
2021/07/09 00:15:59;;;;;;;31.30;14.20;;;;;;;20.64;67.34;101226.94;126305;1099;104131;-76
2021/07/09 00:18:30;;;;;;;26.57;12.47;;;;;;;20.58;66.27;101224.23;126309;1099;104229;-75
2021/07/09 00:21:01;;;;;;;26.03;9.93;;;;;;;20.53;66.44;101217.98;126310;1099;104137;-76
2021/07/09 00:23:32;;;;;;;18.93;8.63;;;;;;;20.48;67.28;101223.30;126380;1099;104136;-76
2021/07/09 00:26:02;;;;;;;19.10;7.17;;;;;;;20.43;66.87;101225.93;126358;1099;104163;-76
2021/07/09 00:28:33;;;;;;;18.57;7.10;;;;;;;20.42;67.95;101221.47;126281;1099;104286;-76
2021/07/09 00:31:05;;;;;;;17.83;6.53;;;;;;;20.41;67.29;101226.78;126347;1099;104137;-76
2021/07/09 00:33:35;;;;;;;14.13;6.50;;;;;;;20.38;67.52;101221.44;126358;1099;104140;-75
2021/07/09 00:36:06;;;;;;;18.90;5.93;;;;;;;20.34;67.40;101223.20;126365;1099;104178;-77
2021/07/09 00:38:37;;;;;;;13.10;5.77;;;;;;;20.29;67.68;101224.95;126300;1099;104248;-77
2021/07/09 00:41:08;;;;;;;14.57;5.37;;;;;;;20.21;67.48;101218.65;126331;1099;104570;-77
2021/07/09 00:43:39;;;;;;;13.67;5.63;;;;;;;20.18;67.95;101215.95;126275;1099;104261;-77
2021/07/09 00:46:10;;;;;;;16.63;6.50;;;;;;;20.13;68.62;101217.70;126344;1099;104165;-77
2021/07/09 00:48:41;;;;;;;12.07;5.90;;;;;;;20.08;68.41;101215.89;126331;1099;104156;-76
2021/07/09 00:51:12;;;;;;;17.00;6.10;;;;;;;20.05;68.12;101217.64;126351;1097;104299;-77
2021/07/09 00:53:43;;;;;;;16.17;6.00;;;;;;;20.03;68.78;101222.95;126324;1099;104335;-77
2021/07/09 00:56:14;;;;;;;13.60;5.73;;;;;;;20.03;69.13;101214.97;126318;1099;104140;-76
2021/07/09 00:58:44;;;;;;;13.67;5.67;;;;;;;20.01;68.86;101215.86;126302;1099;104618;-76
2021/07/09 01:01:15;;;;;;;13.20;6.30;;;;;;;19.95;69.18;101222.01;126365;1099;104239;-77
2021/07/09 01:03:46;;;;;;;14.00;6.43;;;;;;;19.87;69.26;101211.29;126343;1099;104211;-77
2021/07/09 01:06:17;;;;;;;15.53;6.00;;;;;;;19.80;69.57;101213.88;126184;1099;104210;-77
2021/07/09 01:08:48;;;;;;;12.93;5.67;;;;;;;19.73;69.95;101207.59;125266;1099;104166;-77
2021/07/09 01:11:21;;;;;;;10.67;5.53;;;;;;;19.67;69.47;101205.75;125289;1099;104758;-77
2021/07/09 01:13:53;;;;;;;10.43;5.63;;;;;;;19.61;69.82;101200.36;125342;1099;104245;-77
2021/07/09 01:16:24;;;;;;;10.13;5.57;;;;;;;19.56;69.94;101210.97;125255;1099;104395;-76
2021/07/09 01:18:55;;;;;;;13.47;5.80;;;;;;;19.55;69.74;101202.96;125257;1099;104188;-76
2021/07/09 01:21:26;;;;;;;14.17;6.07;;;;;;;19.53;70.13;101202.06;125319;1099;104297;-76
2021/07/09 01:24:03;;;;;;;11.77;5.90;;;;;;;19.52;69.92;101201.15;125279;1102;104382;-76
2021/07/09 01:26:34;;;;;;;11.27;5.53;;;;;;;19.49;69.75;101193.13;125310;1102;104191;-76
2021/07/09 01:29:05;;;;;;;13.20;5.80;;;;;;;19.47;70.55;101200.22;125208;1102;104169;-75
2021/07/09 01:31:38;;;;;;;13.13;6.07;;;;;;;19.45;70.57;101195.78;125250;1099;104304;-77
2021/07/09 01:34:08;;;;;;;14.03;6.23;;;;;;;19.41;70.42;101202.81;125292;1102;104197;-76
2021/07/09 01:36:39;;;;;;;15.83;6.17;;;;;;;19.38;70.08;101206.36;125271;1099;104203;-77
2021/07/09 01:39:12;;;;;;;11.30;6.30;;;;;;;19.38;70.75;101208.11;125210;1099;104175;-77
2021/07/09 01:41:43;;;;;;;12.45;5.95;;;;;;;19.36;70.71;101210.75;126253;1099;104143;-77
2021/07/09 01:44:14;;;;;;;17.77;6.17;;;;;;;19.33;70.55;101202.73;126306;1099;104343;-77
2021/07/09 01:46:47;;;;;;;17.42;6.28;;;;;;;19.29;70.63;101210.66;126343;1099;104155;-77
2021/07/09 01:49:18;;;;;;;12.93;6.57;;;;;;;19.26;71.31;101203.56;126272;1099;104216;-77
2021/07/09 01:51:48;;;;;;;12.17;6.70;;;;;;;19.23;71.21;101206.19;126317;1099;104198;-76
2021/07/09 01:54:20;;;;;;;12.23;5.90;;;;;;;19.19;71.07;101205.23;126345;1099;104137;-76
2021/07/09 01:56:54;;;;;;;15.20;6.58;;;;;;;19.16;71.72;101209.64;126289;1099;104146;-77
2021/07/09 01:59:24;;;;;;;13.63;6.27;;;;;;;19.11;71.58;101208.70;126244;1099;104171;-77
2021/07/09 02:01:55;;;;;;;15.33;6.47;;;;;;;19.07;71.21;101213.07;126343;1099;104566;-77
2021/07/09 02:04:25;;;;;;;13.73;6.07;;;;;;;19.03;71.42;101209.49;126256;1099;104252;-76
2021/07/09 02:06:57;;;;;;;11.30;6.10;;;;;;;19.01;71.78;101216.57;126339;1099;104268;-76
2021/07/09 02:09:27;;;;;;;17.77;6.90;;;;;;;18.99;71.99;101214.75;126259;1099;104284;-77
2021/07/09 02:11:58;;;;;;;14.30;6.70;;;;;;;18.97;71.92;101212.08;126347;1098;104139;-77
2021/07/09 02:14:29;;;;;;;11.10;5.90;;;;;;;18.95;71.74;101219.16;126337;1099;104139;-76
2021/07/09 02:16:59;;;;;;;14.80;6.80;;;;;;;18.91;72.32;101216.44;126336;1098;104220;-76
2021/07/09 02:19:30;;;;;;;17.00;6.20;;;;;;;18.89;71.96;101220.84;126276;1099;104140;-76
2021/07/09 02:22:03;;;;;;;12.13;6.87;;;;;;;18.88;72.31;101209.30;126364;1099;104144;-77
2021/07/09 02:24:35;;;;;;;11.88;6.22;;;;;;;18.90;72.20;101212.89;126345;1099;104335;-77
2021/07/09 02:27:07;;;;;;;14.37;6.70;;;;;;;18.92;72.28;101216.45;126326;1099;104226;-77
2021/07/09 02:29:38;;;;;;;13.77;6.67;;;;;;;18.91;72.39;101212.00;126326;1099;104257;-77
2021/07/09 02:32:13;;;;;;;14.83;6.93;;;;;;;18.91;71.62;101213.77;126327;1099;104246;-75
2021/07/09 02:34:43;;;;;;;12.80;6.45;;;;;;;18.91;72.49;101212.00;126325;1099;104140;-76
2021/07/09 02:37:14;;;;;;;14.17;6.77;;;;;;;18.88;72.18;101205.75;126335;1099;104200;-77
2021/07/09 02:39:45;;;;;;;14.57;6.90;;;;;;;18.83;72.20;101203.00;126299;1099;104195;-77
2021/07/09 02:42:16;;;;;;;16.43;6.83;;;;;;;18.81;73.11;101200.33;126354;1099;104185;-76
2021/07/09 02:44:46;;;;;;;13.70;6.47;;;;;;;18.80;72.25;101201.19;125270;1099;104312;-77
2021/07/09 02:47:17;;;;;;;15.80;7.20;;;;;;;18.80;72.67;101203.84;125297;1099;105437;-78
2021/07/09 02:49:49;;;;;;;13.90;7.10;;;;;;;18.80;73.01;101202.96;125212;1099;105485;-76
2021/07/09 02:52:20;;;;;;;16.20;6.60;;;;;;;18.80;72.50;101210.94;125239;1099;104281;-76
2021/07/09 02:54:52;;;;;;;12.57;6.50;;;;;;;18.80;72.66;101214.48;125311;1099;103938;-77
2021/07/09 02:57:24;;;;;;;13.23;5.83;;;;;;;18.80;72.87;101217.14;125248;1099;103967;-76
2021/07/09 02:59:55;;;;;;;17.67;5.87;;;;;;;18.80;72.73;101225.11;125249;1099;103941;-76
2021/07/09 03:02:28;;;;;;;12.47;6.00;;;;;;;18.82;72.85;101219.81;125274;1099;104002;-76
2021/07/09 03:04:59;;;;;;;13.40;5.67;;;;;;;18.82;72.84;101223.39;125258;1098;103916;-75
2021/07/09 03:07:31;;;;;;;12.53;5.73;;;;;;;18.84;72.77;101223.41;125319;1099;103941;-75
2021/07/09 03:10:03;;;;;;;14.90;5.40;;;;;;;18.86;73.33;101224.34;125278;1100;104100;-76
2021/07/09 03:12:35;;;;;;;12.60;5.50;;;;;;;18.88;72.98;101222.59;125261;1099;104149;-76
2021/07/09 03:15:10;;;;;;;10.73;5.40;;;;;;;18.96;73.07;101223.58;125293;1098;104216;-77
2021/07/09 03:17:42;;;;;;;17.23;5.90;;;;;;;19.03;73.39;101222.79;126252;1099;103912;-76
2021/07/09 03:20:14;;;;;;;12.53;5.57;;;;;;;19.08;73.50;101227.28;126367;1099;104015;-77
2021/07/09 03:22:46;;;;;;;14.87;5.57;;;;;;;19.11;73.69;101227.33;126367;1098;118282;-76
2021/07/09 03:25:18;;;;;;;18.63;6.10;;;;;;;19.14;73.17;101220.27;126277;1099;103907;-76
2021/07/09 03:27:49;;;;;;;15.33;5.67;;;;;;;19.17;73.79;101219.42;126353;1099;103986;-76
2021/07/09 03:30:21;;;;;;;12.27;6.30;;;;;;;19.17;73.69;101219.42;125333;1099;103926;-77
2021/07/09 03:32:53;;;;;;;14.90;5.90;;;;;;;19.19;73.65;101215.88;126272;1099;103913;-77
2021/07/09 03:35:27;;;;;;;15.05;6.30;;;;;;;19.21;73.83;101210.58;126372;1099;103919;-77
2021/07/09 03:37:59;;;;;;;19.50;6.80;;;;;;;19.23;73.69;101211.51;126296;1099;104011;-77
2021/07/09 03:40:30;;;;;;;16.73;5.70;;;;;;;19.28;73.15;101215.10;126319;1099;103953;-77
2021/07/09 03:43:02;;;;;;;15.27;6.10;;;;;;;19.30;73.42;101210.68;126257;1099;103942;-76
2021/07/09 03:45:34;;;;;;;9.97;5.40;;;;;;;19.32;73.55;101218.69;126353;1099;103916;-76
2021/07/09 03:48:07;;;;;;;14.93;5.70;;;;;;;19.34;73.07;101206.31;126324;1099;104128;-78
2021/07/09 03:50:39;;;;;;;14.33;5.57;;;;;;;19.38;73.90;101205.45;126231;1098;104012;-77
2021/07/09 03:53:11;;;;;;;13.90;5.90;;;;;;;19.42;73.09;101196.63;126309;1099;103925;-78
2021/07/09 03:55:43;;;;;;;17.63;6.07;;;;;;;19.50;73.26;101196.70;126321;1099;103938;-77
2021/07/09 03:58:14;;;;;;;16.63;5.80;;;;;;;19.55;73.40;101198.52;126363;1099;103916;-77
2021/07/09 04:00:46;;;;;;;16.50;5.90;;;;;;;19.63;73.30;101203.03;126354;1099;103909;-77
2021/07/09 04:03:18;;;;;;;15.10;5.53;;;;;;;19.71;73.17;101201.33;126203;1099;104086;-77
2021/07/09 04:05:49;;;;;;;13.20;5.80;;;;;;;19.80;73.96;101209.44;126360;1099;103971;-78
2021/07/09 04:08:22;;;;;;;16.07;5.10;;;;;;;19.87;72.96;101207.75;126290;1099;103909;-78
2021/07/09 04:10:54;;;;;;;12.15;5.40;;;;;;;19.92;72.76;101206.00;126359;1099;103980;-78
2021/07/09 04:13:26;;;;;;;14.40;5.27;;;;;;;20.00;72.94;101200.74;126282;1099;105155;-78
2021/07/09 04:15:58;;;;;;;15.73;5.43;;;;;;;20.05;72.41;101196.33;126302;1099;104092;-77
2021/07/09 04:18:31;;;;;;;16.00;5.40;;;;;;;20.10;72.31;101206.16;126310;1099;104040;-76
2021/07/09 04:21:03;;;;;;;13.40;5.03;;;;;;;20.15;73.15;101199.95;126291;1099;102772;-75
2021/07/09 04:23:35;;;;;;;11.30;5.30;;;;;;;20.21;73.23;101207.98;126167;1099;103974;-76
2021/07/09 04:26:08;;;;;;;13.23;4.77;;;;;;;20.27;72.65;101210.70;126298;1099;104425;-75
2021/07/09 04:28:40;;;;;;;13.65;5.00;;;;;;;20.34;72.67;101212.53;126217;1099;102611;-76
2021/07/09 04:31:12;;;;;;;14.60;5.43;;;;;;;20.44;72.69;101210.81;126241;1099;104031;-76
2021/07/09 04:33:45;;;;;;;14.27;4.90;;;;;;;20.50;72.67;101207.30;126233;1099;104050;-76
2021/07/09 04:36:17;;;;;;;12.55;5.20;;;;;;;20.55;72.12;101208.22;126341;1099;103954;-77
2021/07/09 04:38:49;;;;;;;18.47;5.30;;;;;;;20.60;72.13;101212.70;126353;1099;104015;-79
2021/07/09 04:41:21;;;;;;;17.40;5.30;;;;;;;20.65;72.04;101205.64;126241;1099;103993;-78
2021/07/09 04:43:53;;;;;;;17.33;5.20;;;;;;;20.71;71.07;101209.22;126264;1099;103896;-77
2021/07/09 04:46:25;;;;;;;15.87;5.37;;;;;;;20.75;71.67;101211.91;126273;1099;103919;-78
2021/07/09 04:48:57;;;;;;;;;;;;;;;20.80;70.39;101206.60;126386;1099;104127;-77
2021/07/09 04:51:30;;;;;;;18.53;4.73;;;;;;;20.84;70.81;101208.41;126275;1099;104404;-77
2021/07/09 04:54:02;;;;;;;18.17;5.23;;;;;;;20.89;71.45;101203.09;126230;1099;103974;-78
2021/07/09 04:56:34;;;;;;;17.75;6.05;;;;;;;20.97;70.91;101196.92;126246;1099;104784;-77
2021/07/09 04:59:05;;;;;;;11.80;4.87;;;;;;;21.04;70.52;101200.49;126063;1099;103916;-77
2021/07/09 05:01:37;;;;;;;13.17;4.60;;;;;;;21.11;70.52;101201.39;126100;1099;104091;-77
2021/07/09 05:04:09;;;;;;;15.07;4.90;;;;;;;21.17;70.46;101207.63;126137;1098;104012;-76
2021/07/09 05:06:41;;;;;;;12.80;4.80;;;;;;;21.23;70.81;101198.77;126141;1099;103912;-76
2021/07/09 05:09:13;;;;;;;12.90;4.20;;;;;;;21.28;69.91;101198.78;126207;1099;103974;-76
2021/07/09 05:11:45;;;;;;;11.57;4.73;;;;;;;21.33;70.27;101202.34;126182;1099;105117;-76
2021/07/09 05:14:17;;;;;;;10.87;4.53;;;;;;;21.37;70.60;101201.48;126183;1099;104002;-76
2021/07/09 05:16:49;;;;;;;15.23;4.57;;;;;;;21.43;70.14;101195.27;126322;1099;104012;-77
2021/07/09 05:19:21;;;;;;;7.90;4.15;;;;;;;21.51;69.69;101194.41;126283;1099;103951;-76
2021/07/09 05:21:53;;;;;;;16.13;4.77;;;;;;;21.60;70.16;101197.97;126154;1099;103945;-76
2021/07/09 05:24:27;;;;;;;14.53;4.83;;;;;;;21.65;69.45;101201.56;126177;1099;104417;-76
2021/07/09 05:26:59;;;;;;;12.20;4.17;;;;;;;21.71;69.27;101197.11;126279;1099;103913;-78
2021/07/09 05:29:31;;;;;;;13.80;4.50;;;;;;;21.79;69.72;101191.77;126328;1099;104429;-76
2021/07/09 05:32:03;;;;;;;13.30;4.40;;;;;;;21.86;69.33;101187.31;126205;1099;104078;-77
2021/07/09 05:34:35;;;;;;;15.77;5.47;;;;;;;21.92;68.71;101194.45;126235;1099;103909;-77
2021/07/09 05:37:07;;;;;;;12.90;4.27;;;;;;;21.94;68.44;101189.98;126163;1099;103977;-78
2021/07/09 05:39:42;;;;;;;16.87;4.60;;;;;;;21.97;68.89;101198.00;126255;1099;103906;-75
2021/07/09 05:42:15;;;;;;;11.97;4.40;;;;;;;21.97;67.80;101200.67;126064;1099;104041;-77
2021/07/09 05:44:50;;;;;;;12.83;4.87;;;;;;;22.02;68.47;101197.12;126210;1099;103916;-77
2021/07/09 05:47:24;;;;;;;9.50;4.50;;;;;;;22.07;67.94;101198.00;126255;1099;103948;-76
2021/07/09 05:49:59;;;;;;;42.63;7.57;;;;;;;22.15;67.73;101206.01;126275;1099;104091;-77
2021/07/09 05:52:32;;;;;;;15.67;4.40;;;;;;;22.19;67.46;101198.87;126148;1099;103914;-75
2021/07/09 05:55:06;;;;;;;7.25;4.10;;;;;;;22.24;68.09;101203.33;126095;1096;103974;-76
2021/07/09 05:57:38;;;;;;;14.00;4.62;;;;;;;22.32;67.59;101199.80;125951;1099;103983;-76
2021/07/09 06:00:13;;;;;;;11.13;4.17;;;;;;;22.37;67.19;101198.88;125105;1102;103964;-77
2021/07/09 06:02:47;;;;;;;8.10;3.93;;;;;;;22.41;67.71;101197.98;125126;1102;105094;-76
2021/07/09 06:05:21;;;;;;;13.47;4.10;;;;;;;22.48;67.40;101192.63;125164;1102;104222;-76
2021/07/09 06:07:56;;;;;;;12.57;3.80;;;;;;;22.55;67.21;101197.08;125192;1102;104084;-76
2021/07/09 06:10:35;;;;;;;9.30;4.05;;;;;;;22.60;67.21;101189.92;125234;1102;103929;-77
2021/07/09 06:13:09;;;;;;;8.67;4.60;;;;;;;22.63;67.07;101184.56;125200;1102;103977;-78
2021/07/09 06:15:49;;;;;;;12.07;5.03;;;;;;;22.70;66.61;101186.30;125223;1102;104381;-78
2021/07/09 06:18:26;;;;;;;16.50;4.93;;;;;;;22.74;65.90;101184.53;125557;1099;103990;-77
2021/07/09 06:21:00;;;;;;;11.88;4.60;;;;;;;22.81;66.21;101183.59;126140;1099;103949;-76
2021/07/09 06:23:33;;;;;;;14.67;4.70;;;;;;;22.85;66.06;101171.99;126242;1099;104021;-78
2021/07/09 06:26:11;;;;;;;17.40;4.50;;;;;;;22.95;65.91;101180.86;125297;1099;103919;-78
2021/07/09 06:28:44;;;;;;;15.90;4.60;;;;;;;23.03;65.81;101183.50;125172;1099;103953;-78
2021/07/09 06:31:20;;;;;;;9.63;4.83;;;;;;;23.12;65.49;101194.19;125148;1099;103951;-79
2021/07/09 06:33:55;;;;;;;14.77;4.30;;;;;;;23.19;65.85;101190.59;125245;1099;103999;-78
2021/07/09 06:36:31;;;;;;;11.77;4.20;;;;;;;23.26;65.69;101173.58;126017;1099;103975;-77
2021/07/09 06:39:05;;;;;;;12.37;4.23;;;;;;;23.32;65.18;101180.70;125276;1099;104018;-76
2021/07/09 06:41:39;;;;;;;17.33;4.53;;;;;;;23.40;65.65;101177.97;125428;1099;103945;-77
2021/07/09 06:44:14;;;;;;;10.93;4.63;;;;;;;23.47;65.27;101177.92;126265;1099;104012;-78
2021/07/09 06:46:53;;;;;;;11.90;4.45;;;;;;;23.54;65.07;101175.20;125113;1099;118725;-79
2021/07/09 06:49:45;;;;;;;10.87;4.33;;;;;;;23.63;65.02;101180.49;125153;1099;104188;-78
2021/07/09 06:52:32;;;;;;;6.83;3.90;;;;;;;23.74;64.66;101175.05;125171;1102;104359;-79
2021/07/09 06:55:12;;;;;;;8.27;3.90;;;;;;;23.79;63.70;101171.41;125205;1102;104181;-79
2021/07/09 06:57:48;;;;;;;13.03;4.77;;;;;;;23.88;64.06;101169.61;125248;1102;104069;-81
2021/07/09 07:00:26;;;;;;;12.27;4.47;;;;;;;23.99;64.03;101171.27;125254;1102;104075;-79
2021/07/09 07:03:02;;;;;;;13.50;4.60;;;;;;;24.09;64.07;101171.19;125255;1102;103929;-79
2021/07/09 07:05:38;;;;;;;13.47;6.50;;;;;;;24.20;63.76;101164.83;125242;1102;104133;-80
2021/07/09 07:08:17;;;;;;;15.80;4.70;;;;;;;24.35;62.90;101171.81;125813;1093;103925;-79
2021/07/09 07:10:51;;;;;;;12.00;4.37;;;;;;;24.47;63.16;101167.23;125190;1102;104518;-78
2021/07/09 07:13:28;;;;;;;10.83;4.70;;;;;;;24.59;62.97;101161.77;125123;1102;104022;-79
2021/07/09 07:16:14;;;;;;;14.10;4.70;;;;;;;24.71;62.83;101168.77;125259;1102;103931;-79
2021/07/09 07:19:04;;;;;;;12.40;4.40;;;;;;;24.85;61.53;101164.09;125188;1102;103970;-78
2021/07/09 07:22:04;;;;;;;8.63;4.27;;;;;;;25.01;61.25;101164.80;125176;1102;104105;-78
2021/07/09 07:24:36;;;;;;;11.43;4.23;;;;;;;25.21;60.00;101158.25;125184;1099;105512;-78
2021/07/09 07:27:11;;;;;;;16.03;4.63;;;;;;;25.29;59.88;101153.68;125193;1099;103931;-78
2021/07/09 07:29:48;;;;;;;8.83;4.20;;;;;;;25.45;59.43;101152.55;125241;1103;104213;-78
2021/07/09 07:32:46;;;;;;;12.97;4.97;;;;;;;25.64;59.88;101150.44;125328;1102;104076;-79
2021/07/09 07:35:24;;;;;;;16.63;4.73;;;;;;;25.81;59.63;101151.97;125254;1102;104053;-78
2021/07/09 07:38:00;;;;;;;11.03;4.50;;;;;;;25.89;59.76;101151.84;125307;1102;104022;-78
2021/07/09 07:40:38;;;;;;;12.53;4.53;;;;;;;25.97;59.41;101153.49;125249;1102;104149;-80
2021/07/09 07:43:42;;;;;;;15.17;4.67;;;;;;;26.10;59.22;101146.11;125116;1102;103929;-78
2021/07/09 07:46:37;;;;;;;14.00;4.43;;;;;;;26.28;59.16;101146.67;125295;1102;104280;-77
2021/07/09 07:49:11;;;;;;;10.73;4.23;;;;;;;26.45;59.41;101141.84;125241;1102;103921;-78
2021/07/09 07:51:45;;;;;;;7.63;4.30;;;;;;;26.61;59.39;101146.91;125296;1102;104067;-78
2021/07/09 07:54:25;;;;;;;10.33;3.90;;;;;;;26.78;58.98;101143.91;125279;1102;103925;-77
2021/07/09 07:57:01;;;;;;;9.63;4.23;;;;;;;26.87;56.57;101149.09;125195;1102;104200;-77
2021/07/09 07:59:36;;;;;;;7.83;4.37;;;;;;;26.99;57.17;101151.52;125234;1102;104015;-77
2021/07/09 08:02:14;;;;;;;9.40;3.90;;;;;;;27.11;56.80;101142.25;125240;1099;103961;-79
2021/07/09 08:04:49;;;;;;;10.37;4.00;;;;;;;27.22;55.16;101137.52;125323;1099;103919;-77
2021/07/09 08:07:24;;;;;;;7.43;3.50;;;;;;;27.31;55.49;101146.30;125324;1099;103964;-80
2021/07/09 08:10:03;;;;;;;12.00;3.70;;;;;;;27.44;55.61;101135.23;125320;1099;107900;-78
2021/07/09 08:12:41;;;;;;;9.27;4.20;;;;;;;27.65;54.45;101137.44;126310;1099;104030;-80
2021/07/09 08:15:19;;;;;;;9.00;3.90;;;;;;;27.79;54.84;101132.56;126261;1099;103920;-79
2021/07/09 08:17:53;;;;;;;9.07;4.13;;;;;;;28.02;55.02;101137.39;126278;1099;103925;-78
2021/07/09 08:20:29;;;;;;;10.53;3.93;;;;;;;28.15;54.33;101137.94;126230;1099;104034;-79
2021/07/09 08:23:09;;;;;;;13.70;4.10;;;;;;;28.24;54.29;101140.38;126207;1098;103926;-80
2021/07/09 08:25:42;;;;;;;8.93;3.97;;;;;;;28.46;53.70;101137.95;125366;1099;103961;-77
2021/07/09 08:28:19;;;;;;;10.13;4.00;;;;;;;28.55;53.44;101142.22;126124;1099;103958;-79
2021/07/09 08:30:55;;;;;;;10.63;4.50;;;;;;;28.63;53.42;101137.50;125413;1099;104099;-77
2021/07/09 08:33:31;;;;;;;10.73;4.03;;;;;;;28.70;51.55;101135.48;125401;1099;103945;-79
2021/07/09 08:36:08;;;;;;;8.97;3.77;;;;;;;28.65;53.18;101132.05;125364;1099;103961;-77
2021/07/09 08:38:55;;;;;;;11.20;4.10;;;;;;;28.70;52.99;101132.79;126149;1099;104031;-78
2021/07/09 08:41:34;;;;;;;8.87;4.00;;;;;;;28.82;52.16;101127.02;125305;1099;104778;-78
2021/07/09 08:44:10;;;;;;;14.53;4.20;;;;;;;28.97;52.17;101127.51;125411;1099;103922;-78
2021/07/09 08:46:47;;;;;;;12.43;4.10;;;;;;;29.02;51.90;101126.41;125395;1099;103925;-79
2021/07/09 08:49:22;;;;;;;9.85;3.70;;;;;;;29.01;52.03;101119.23;125252;1099;104025;-79
2021/07/09 08:51:58;;;;;;;10.00;3.77;;;;;;;29.02;50.95;101121.01;126160;1099;104025;-77
2021/07/09 08:54:35;;;;;;;10.93;3.60;;;;;;;29.04;50.45;101112.85;125279;1099;103945;-75
2021/07/09 08:57:12;;;;;;;9.57;3.83;;;;;;;29.10;50.35;101117.19;126232;1099;103913;-76
2021/07/09 08:59:45;;;;;;;11.73;3.67;;;;;;;29.19;49.90;101112.41;125350;1099;103945;-78
2021/07/09 09:02:29;;;;;;;8.47;3.30;;;;;;;29.18;49.64;101115.99;126098;1099;103922;-77
2021/07/09 09:05:02;;;;;;;8.47;3.63;;;;;;;29.19;49.11;101117.80;126217;1099;104487;-78
2021/07/09 09:07:34;;;;;;;;;;;;;;;29.19;47.69;101114.20;126272;1099;104028;-80
2021/07/09 09:10:09;;;;;;;9.50;3.52;;;;;;;29.22;46.89;101114.13;126194;1099;104188;-78
2021/07/09 09:12:46;;;;;;;8.80;3.50;;;;;;;29.25;47.85;101111.33;126153;1099;104054;-78
2021/07/09 09:15:26;;;;;;;9.47;3.30;;;;;;;29.20;47.28;101113.27;125303;1099;103984;-78
2021/07/09 09:18:33;;;;;;;5.92;3.45;;;;;;;29.14;46.54;101116.14;125236;1099;103964;-76
2021/07/09 09:21:12;;;;;;;5.97;3.20;;;;;;;29.20;46.39;101110.57;126134;1099;103925;-79
2021/07/09 09:24:13;;;;;;;8.47;3.47;;;;;;;29.28;46.40;101111.23;125448;1099;103945;-78
2021/07/09 09:26:54;;;;;;;11.37;3.43;;;;;;;29.42;46.07;101102.67;125663;1099;104025;-78
2021/07/09 09:29:40;;;;;;;9.73;3.40;;;;;;;29.53;46.29;101104.98;126008;1099;103957;-79
2021/07/09 09:32:16;;;;;;;8.40;3.20;;;;;;;29.58;45.79;101109.31;125820;1099;101450;-80
2021/07/09 09:34:52;;;;;;;7.57;3.10;;;;;;;29.68;42.48;101109.86;125223;1102;103967;-76
2021/07/09 09:37:36;;;;;;;5.80;3.10;;;;;;;29.66;44.25;101109.05;125376;1099;104019;-77
2021/07/09 09:40:21;;;;;;;8.57;3.40;;;;;;;29.62;43.89;101114.61;125634;1099;103928;-78
2021/07/09 09:42:57;;;;;;;9.07;3.40;;;;;;;29.65;44.29;101109.97;125203;1100;104105;-79
2021/07/09 09:45:37;;;;;;;13.00;3.37;;;;;;;29.66;44.05;101098.23;125429;1099;104111;-78
2021/07/09 09:48:15;;;;;;;6.40;3.63;;;;;;;29.69;44.51;101095.42;125240;1102;104031;-77
2021/07/09 09:50:51;;;;;;;8.43;3.67;;;;;;;29.73;44.34;101101.59;125145;1102;104009;-77
2021/07/09 09:53:39;;;;;;;6.50;3.17;;;;;;;29.65;43.78;101088.34;125189;1102;104159;-78
2021/07/09 09:56:38;;;;;;;7.97;3.43;;;;;;;29.61;43.14;101096.61;125083;1102;104131;-76
2021/07/09 09:59:30;;;;;;;12.25;3.95;;;;;;;29.60;43.13;101090.33;125122;1102;104037;-76
2021/07/09 10:02:10;;;;;;;8.40;3.23;;;;;;;29.63;43.21;101087.52;125102;1102;111498;-75
2021/07/09 10:04:43;;;;;;;7.47;3.60;;;;;;;29.67;43.48;101083.78;125161;1102;104126;-75
2021/07/09 10:07:17;;;;;;;6.93;3.20;;;;;;;29.73;43.63;101086.27;125148;1102;104077;-76
2021/07/09 10:09:53;;;;;;;6.93;3.10;;;;;;;29.80;43.39;101084.27;125066;1102;104217;-76
2021/07/09 10:12:29;;;;;;;9.13;3.20;;;;;;;29.82;43.11;101078.80;125246;1102;104056;-76
2021/07/09 10:15:03;;;;;;;8.07;3.20;;;;;;;29.86;42.38;101075.93;125131;1102;104139;-77
2021/07/09 10:17:40;;;;;;;10.67;3.70;;;;;;;29.99;42.54;101087.19;125198;1102;103980;-77
2021/07/09 10:20:14;;;;;;;7.80;3.27;;;;;;;30.03;41.52;101077.13;125185;1102;103931;-76
2021/07/09 10:22:51;;;;;;;8.83;3.47;;;;;;;29.98;41.24;101074.62;125237;1102;108266;-77
2021/07/09 10:25:25;;;;;;;8.43;3.53;;;;;;;29.98;41.91;101081.83;125227;1102;103932;-76
2021/07/09 10:28:03;;;;;;;6.30;3.20;;;;;;;29.97;41.86;101072.84;125092;1102;103979;-76
2021/07/09 10:30:42;;;;;;;11.57;3.33;;;;;;;30.00;41.84;101071.86;125181;1102;103983;-78
2021/07/09 10:33:31;;;;;;;8.23;3.43;;;;;;;30.05;42.05;101072.56;125083;1102;119840;-77
2021/07/09 10:36:09;;;;;;;10.43;3.47;;;;;;;30.05;41.08;101072.56;125127;1099;104473;-76
2021/07/09 10:38:45;;;;;;;8.17;3.10;;;;;;;29.99;40.66;101065.55;125153;1102;103954;-77
2021/07/09 10:41:22;;;;;;;5.30;3.20;;;;;;;30.03;41.22;101060.89;125135;1099;104069;-77
2021/07/09 10:44:18;;;;;;;9.67;3.27;;;;;;;30.03;41.40;101061.80;126225;1099;105056;-77
2021/07/09 10:46:52;;;;;;;8.37;3.23;;;;;;;30.05;41.48;101048.21;126172;1099;103998;-76
2021/07/09 10:49:47;;;;;;;9.63;3.60;;;;;;;30.09;40.78;101048.05;126118;1099;104015;-76
2021/07/09 10:52:45;;;;;;;10.87;3.87;;;;;;;30.18;40.78;101048.62;125057;1102;103935;-78
2021/07/09 10:55:49;;;;;;;6.67;3.17;;;;;;;30.20;40.82;101047.64;125142;1102;104115;-76
2021/07/09 10:58:29;;;;;;;6.47;3.03;;;;;;;30.25;40.84;101039.34;125254;1101;104121;-75
2021/07/09 11:01:11;;;;;;;9.03;3.20;;;;;;;30.19;40.73;101032.34;125219;1102;103973;-76
2021/07/09 11:03:49;;;;;;;6.75;3.85;;;;;;;30.11;40.23;101029.91;125197;1102;103952;-76
2021/07/09 11:06:30;;;;;;;8.47;3.20;;;;;;;30.05;39.81;101032.84;125255;1099;104187;-78
2021/07/09 11:09:07;;;;;;;6.40;3.37;;;;;;;29.96;39.83;101033.19;125203;1102;104050;-78
2021/07/09 11:11:52;;;;;;;8.50;3.60;;;;;;;29.96;39.82;101027.78;125292;1102;103916;-81
2021/07/09 11:15:04;;;;;;;9.87;3.60;;;;;;;29.94;39.67;101024.25;125370;1099;118887;-79
2021/07/09 11:17:45;;;;;;;6.22;3.40;;;;;;;29.96;39.56;101010.67;125345;1100;103961;-78
2021/07/09 11:20:19;;;;;;;7.73;3.50;;;;;;;30.05;40.02;101008.50;125325;1099;104066;-78
2021/07/09 11:26:10;;;;;;;8.23;3.57;;;;;;;30.26;39.97;101008.61;125588;1102;101872;-79
2021/07/09 11:28:44;;;;;;;9.00;3.20;;;;;;;30.33;39.22;101015.56;125171;1102;104162;-78
2021/07/09 11:31:33;;;;;;;8.87;3.33;;;;;;;30.37;38.99;101008.20;125696;1099;103945;-77
2021/07/09 11:34:11;;;;;;;9.03;3.20;;;;;;;30.40;39.28;101002.70;125121;1099;104005;-78
2021/07/09 11:36:46;;;;;;;5.43;3.10;;;;;;;30.35;38.82;101008.26;125140;1099;103931;-76
2021/07/09 11:39:22;;;;;;;5.55;3.00;;;;;;;30.13;39.19;101010.05;125263;1099;103912;-79
2021/07/09 11:41:59;;;;;;;7.10;3.30;;;;;;;29.92;39.15;101010.78;125201;1102;103976;-77
2021/07/09 11:44:38;;;;;;;5.80;3.20;;;;;;;29.75;39.15;101003.25;125251;1099;104018;-77